Wtr Mill, New York
Current Conditions -  °F | °C
As of 4:53 AM on Sunday 23 Nov 2014 (Local Time) from KFOK Reporting Station
Overcast Overcast  
Wind Chill: 40°   Ceiling: 11000
Heat Index: 46°   Visibility: 10mi
Dew Point: 27°   Wind: 13mph
Humidity: 47%   Direction: 250°WSW
Pressure: 30.19"   Gusts: NA
Location:  40.9217°N, 72.3434°W
Report Text: KFOK 230953Z AUTO 25011KT 10SM FEW080 OVC110 08/M03 A3019 RMK AO2 SLP224 T00781028 TSNO
Loading
Personal Weather Stations






























Interactive Weather Map New forecast layout! Learn more

10-Day Weather Forecast

Advertisements
Track Severe Weather on mobile